Time;durP1;ratioP1;P1;durP2;ratioP2;P2;SDS_P1;SDS_P2;PMS_P1;PMS_P2;Temp;Humidity;BMP_temperature;BMP_pressure;BME280_temperature;BME280_humidity;BME280_pressure;Samples;Min_cycle;Max_cycle;Signal;HPM_P1;HPM_P2
2022/09/20 00:00:35;;;;;;;;;;;10.20;99.90;;;;;;5075073;28;20011;-57
2022/09/20 00:03:01;;;;;;;;;;;10.10;99.90;;;;;;5074837;28;20281;-57
2022/09/20 00:05:26;;;;;;;;;;;10.10;99.90;;;;;;5075025;28;19920;-57
2022/09/20 00:07:52;;;;;;;;;;;10.00;99.90;;;;;;5026512;28;19926;-57
2022/09/20 00:10:17;;;;;;;;;;;9.90;99.90;;;;;;5046144;28;19927;-57
2022/09/20 00:12:43;;;;;;;;;;;9.90;99.90;;;;;;5074727;28;19925;-57
2022/09/20 00:15:09;;;;;;;;;;;9.80;99.90;;;;;;5074853;28;20285;-57
2022/09/20 00:17:34;;;;;;;;;;;9.80;99.90;;;;;;5067978;28;20022;-57
2022/09/20 00:20:00;;;;;;;;;;;9.80;99.90;;;;;;5074986;28;19931;-62
2022/09/20 00:22:26;;;;;;;;;;;9.80;99.90;;;;;;5038393;28;19916;-58
2022/09/20 00:24:51;;;;;;;;;;;9.70;99.90;;;;;;5074648;28;19943;-59
2022/09/20 00:27:17;;;;;;;;;;;9.70;99.90;;;;;;5074658;28;20374;-60
2022/09/20 00:29:43;;;;;;;;;;;9.60;99.90;;;;;;5074194;28;19920;-61
2022/09/20 00:32:08;;;;;;;;;;;9.80;99.90;;;;;;5074511;28;19973;-57
2022/09/20 00:37:18;;;;;;;;;;;9.50;99.90;;;;;;5070662;28;19924;-59
2022/09/20 00:39:44;;;;;;;;;;;9.50;99.90;;;;;;5073912;28;19917;-62
2022/09/20 00:42:12;;;;;;;;;;;9.50;99.90;;;;;;5074105;28;19921;-59
2022/09/20 00:44:41;;;;;;;;;;;9.40;99.90;;;;;;5074280;28;19932;-57
2022/09/20 00:47:13;;;;;;;;;;;9.40;99.90;;;;;;5074188;28;19920;-57
2022/09/20 00:49:38;;;;;;;;;;;9.40;99.90;;;;;;5058646;28;19943;-58
2022/09/20 00:52:04;;;;;;;;;;;9.50;99.90;;;;;;5073497;28;20358;-57
2022/09/20 00:54:30;;;;;;;;;;;9.50;99.90;;;;;;5073823;28;20453;-58
2022/09/20 00:56:56;;;;;;;;;;;9.40;99.90;;;;;;5074334;28;19920;-57
2022/09/20 00:59:27;;;;;;;;;;;9.60;99.90;;;;;;5073867;28;19927;-57
2022/09/20 01:01:55;;;;;;;;;;;9.30;99.90;;;;;;5073833;28;19920;-56
2022/09/20 01:04:22;;;;;;;;;;;9.90;99.90;;;;;;5055850;28;20522;-64
2022/09/20 01:06:52;;;;;;;;;;;9.40;99.90;;;;;;5055195;28;19928;-57
2022/09/20 01:09:17;;;;;;;;;;;9.40;99.90;;;;;;5073174;28;19939;-57
2022/09/20 01:11:44;;;;;;;;;;;9.30;99.90;;;;;;5073786;28;19920;-58
2022/09/20 01:14:11;;;;;;;;;;;9.40;99.90;;;;;;5073739;28;19927;-56
2022/09/20 01:16:37;;;;;;;;;;;9.80;99.90;;;;;;5073697;28;19924;-57
2022/09/20 01:19:08;;;;;;;;;;;9.40;99.90;;;;;;5073655;28;19974;-57
2022/09/20 01:21:34;;;;;;;;;;;9.50;99.90;;;;;;5066201;28;19927;-57
2022/09/20 01:24:03;;;;;;;;;;;9.60;99.90;;;;;;5038419;28;20011;-58
2022/09/20 01:26:36;;;;;;;;;;;9.40;99.90;;;;;;5055637;28;19927;-57
2022/09/20 01:29:13;;;;;;;;;;;9.40;99.90;;;;;;5072538;28;19920;-57
2022/09/20 01:31:49;;;;;;;;;;;9.40;99.90;;;;;;5057925;28;19927;-57
2022/09/20 01:34:21;;;;;;;;;;;9.40;99.90;;;;;;5072938;28;19934;-59
2022/09/20 01:36:53;;;;;;;;;;;9.40;99.90;;;;;;5072875;28;20011;-57
2022/09/20 01:39:27;;;;;;;;;;;9.30;99.90;;;;;;5055222;28;19984;-57
2022/09/20 01:42:03;;;;;;;;;;;9.30;99.90;;;;;;5073261;28;19920;-59
2022/09/20 01:44:45;;;;;;;;;;;9.20;99.90;;;;;;5073024;28;19920;-58
2022/09/20 01:47:46;;;;;;;;;;;9.20;99.90;;;;;;5054905;28;19920;-58
2022/09/20 01:50:19;;;;;;;;;;;9.20;99.90;;;;;;4963641;28;19922;-60
2022/09/20 01:52:57;;;;;;;;;;;9.10;99.90;;;;;;5056440;28;19921;-63
2022/09/20 01:55:41;;;;;;;;;;;9.00;99.90;;;;;;5072850;28;19970;-62
2022/09/20 01:58:13;;;;;;;;;;;9.00;99.90;;;;;;5072697;28;19927;-64
2022/09/20 02:00:55;;;;;;;;;;;9.00;99.90;;;;;;5072863;28;19931;-64
2022/09/20 02:03:39;;;;;;;;;;;9.00;99.90;;;;;;5072585;28;19920;-63
2022/09/20 02:06:40;;;;;;;;;;;8.90;99.90;;;;;;5062509;28;19966;-63
2022/09/20 02:09:40;;;;;;;;;;;8.80;99.90;;;;;;4991288;28;19921;-63
2022/09/20 02:12:29;;;;;;;;;;;8.80;99.90;;;;;;4960155;28;19922;-56
2022/09/20 02:15:00;;;;;;;;;;;8.80;99.90;;;;;;5048018;28;19924;-56
2022/09/20 02:17:45;;;;;;;;;;;8.80;99.90;;;;;;5044260;28;19921;-56
2022/09/20 02:20:16;;;;;;;;;;;8.80;99.90;;;;;;5071954;28;20432;-57
2022/09/20 02:22:51;;;;;;;;;;;8.80;99.90;;;;;;5072581;28;20326;-56
2022/09/20 02:25:39;;;;;;;;;;;8.70;99.90;;;;;;5072195;28;19994;-56
2022/09/20 02:28:16;;;;;;;;;;;8.80;99.90;;;;;;5072422;28;20011;-57
2022/09/20 02:31:00;;;;;;;;;;;8.70;99.90;;;;;;5072316;28;20403;-56
2022/09/20 02:33:44;;;;;;;;;;;8.70;99.90;;;;;;5071964;28;19977;-57
2022/09/20 02:36:19;;;;;;;;;;;8.70;99.90;;;;;;5072356;28;19920;-56
2022/09/20 02:38:56;;;;;;;;;;;8.70;99.90;;;;;;5054098;28;19927;-56
2022/09/20 02:41:21;;;;;;;;;;;8.60;99.90;;;;;;5074822;28;20263;-56
2022/09/20 02:44:03;;;;;;;;;;;8.60;99.90;;;;;;5076588;28;19951;-57
2022/09/20 02:46:34;;;;;;;;;;;8.60;99.90;;;;;;5076619;28;19977;-57
2022/09/20 02:49:18;;;;;;;;;;;8.50;99.90;;;;;;5076024;28;19922;-58
2022/09/20 02:51:46;;;;;;;;;;;8.50;99.90;;;;;;5061463;28;19971;-58
2022/09/20 02:54:21;;;;;;;;;;;8.40;99.90;;;;;;5076143;28;19920;-60
2022/09/20 02:56:53;;;;;;;;;;;8.40;99.90;;;;;;5076343;28;19935;-56
2022/09/20 02:59:24;;;;;;;;;;;8.40;99.90;;;;;;5075585;28;19920;-56
2022/09/20 03:01:59;;;;;;;;;;;8.30;99.90;;;;;;5076180;28;20038;-57
2022/09/20 03:04:33;;;;;;;;;;;8.20;99.90;;;;;;5057023;28;19987;-58
2022/09/20 03:07:11;;;;;;;;;;;8.10;99.90;;;;;;5075637;28;19920;-57
2022/09/20 03:09:43;;;;;;;;;;;8.10;99.90;;;;;;5060100;28;20326;-56
2022/09/20 03:12:21;;;;;;;;;;;8.10;99.90;;;;;;5075780;28;20367;-57
2022/09/20 03:14:54;;;;;;;;;;;8.10;99.90;;;;;;5057911;28;20374;-58
2022/09/20 03:17:41;;;;;;;;;;;8.60;99.90;;;;;;5065716;28;19921;-58
2022/09/20 03:20:25;;;;;;;;;;;8.00;99.90;;;;;;5063714;28;20007;-57
2022/09/20 03:22:57;;;;;;;;;;;8.00;99.90;;;;;;5075707;28;19932;-60
2022/09/20 03:25:33;;;;;;;;;;;8.00;99.90;;;;;;5075922;28;19932;-56
2022/09/20 03:28:17;;;;;;;;;;;7.80;99.90;;;;;;5075717;28;20006;-59
2022/09/20 03:30:49;;;;;;;;;;;7.80;99.90;;;;;;5074978;28;20395;-57
2022/09/20 03:33:25;;;;;;;;;;;7.90;99.90;;;;;;5069460;28;19943;-59
2022/09/20 03:36:09;;;;;;;;;;;7.80;99.90;;;;;;5069231;28;20362;-57
2022/09/20 03:38:53;;;;;;;;;;;7.80;99.90;;;;;;5067502;28;19921;-59
2022/09/20 03:41:27;;;;;;;;;;;7.80;99.90;;;;;;5075000;28;20317;-57
2022/09/20 03:43:56;;;;;;;;;;;7.70;99.90;;;;;;5075401;28;19927;-56
2022/09/20 03:46:28;;;;;;;;;;;7.80;99.90;;;;;;5074730;28;19924;-56
2022/09/20 03:49:03;;;;;;;;;;;7.70;99.90;;;;;;5057445;28;20010;-57
2022/09/20 03:51:47;;;;;;;;;;;7.80;99.90;;;;;;5074276;28;20285;-63
2022/09/20 03:54:16;;;;;;;;;;;7.80;99.90;;;;;;5074795;28;19989;-59
2022/09/20 03:56:48;;;;;;;;;;;7.70;99.90;;;;;;5075093;28;19925;-56
2022/09/20 03:59:31;;;;;;;;;;;7.70;99.90;;;;;;5074924;28;19920;-56
2022/09/20 04:02:10;;;;;;;;;;;7.70;99.90;;;;;;5075111;28;19924;-60
2022/09/20 04:04:43;;;;;;;;;;;7.70;99.90;;;;;;5055736;28;19921;-59
2022/09/20 04:07:11;;;;;;;;;;;7.70;99.90;;;;;;5056973;28;19970;-62
2022/09/20 04:09:55;;;;;;;;;;;7.60;99.90;;;;;;5059037;28;19999;-56
2022/09/20 04:12:29;;;;;;;;;;;7.60;99.90;;;;;;5074941;28;19927;-56
2022/09/20 04:14:55;;;;;;;;;;;7.60;99.90;;;;;;5075075;28;19920;-56
2022/09/20 04:17:34;;;;;;;;;;;7.60;99.90;;;;;;5064586;28;19921;-56
2022/09/20 04:20:12;;;;;;;;;;;7.60;99.90;;;;;;5074338;28;19920;-56
2022/09/20 04:22:39;;;;;;;;;;;7.60;99.90;;;;;;5074743;28;19946;-57
2022/09/20 04:25:12;;;;;;;;;;;7.60;99.90;;;;;;5056439;28;19924;-56
2022/09/20 04:27:40;;;;;;;;;;;7.60;99.90;;;;;;5058543;28;19926;-56
2022/09/20 04:30:06;;;;;;;;;;;7.60;99.90;;;;;;5074380;28;20374;-56
2022/09/20 04:32:40;;;;;;;;;;;7.60;99.90;;;;;;5073852;28;19927;-63
2022/09/20 04:38:22;;;;;;;;;;;7.50;99.90;;;;;;5046383;28;19931;-56
2022/09/20 04:41:11;;;;;;;;;;;7.50;99.90;;;;;;5074404;28;19924;-57
2022/09/20 04:43:40;;;;;;;;;;;7.50;99.90;;;;;;5058437;28;20334;-56
2022/09/20 04:46:12;;;;;;;;;;;7.50;99.90;;;;;;5073891;28;20342;-56
2022/09/20 04:48:37;;;;;;;;;;;7.50;99.90;;;;;;5073445;28;20385;-62
2022/09/20 04:51:22;;;;;;;;;;;7.90;99.90;;;;;;5055879;28;19920;-64
2022/09/20 04:54:00;;;;;;;;;;;7.40;99.90;;;;;;5059625;28;20285;-63
2022/09/20 04:56:25;;;;;;;;;;;7.50;99.90;;;;;;5073409;28;20382;-62
2022/09/20 04:59:04;;;;;;;;;;;7.50;99.90;;;;;;5073626;28;19920;-62
2022/09/20 05:01:33;;;;;;;;;;;7.50;99.90;;;;;;5074032;28;19920;-64
2022/09/20 05:03:58;;;;;;;;;;;7.50;99.90;;;;;;5072796;28;19931;-59
2022/09/20 05:06:24;;;;;;;;;;;7.50;99.90;;;;;;5073700;28;19925;-57
2022/09/20 05:08:59;;;;;;;;;;;7.50;99.90;;;;;;5073330;28;19935;-59
2022/09/20 05:11:45;;;;;;;;;;;7.40;99.90;;;;;;5073678;28;20454;-60
2022/09/20 05:14:29;;;;;;;;;;;7.40;99.90;;;;;;5073734;28;19920;-57
2022/09/20 05:17:18;;;;;;;;;;;7.40;99.90;;;;;;5072808;28;20015;-57
2022/09/20 05:20:07;;;;;;;;;;;7.40;99.90;;;;;;5050159;28;19942;-58
2022/09/20 05:22:39;;;;;;;;;;;7.40;99.90;;;;;;5061457;28;19967;-59
2022/09/20 05:25:11;;;;;;;;;;;7.40;99.90;;;;;;5073499;28;19927;-60
2022/09/20 05:27:51;;;;;;;;;;;7.40;99.90;;;;;;5057046;28;20003;-60
2022/09/20 05:30:36;;;;;;;;;;;7.40;99.90;;;;;;5072583;28;20337;-58
2022/09/20 05:33:19;;;;;;;;;;;7.40;99.90;;;;;;5073075;28;19920;-61
2022/09/20 05:35:47;;;;;;;;;;;7.40;99.90;;;;;;5029274;28;19925;-61
2022/09/20 05:38:30;;;;;;;;;;;7.50;99.90;;;;;;5021930;28;20012;-57
2022/09/20 05:41:12;;;;;;;;;;;7.70;99.90;;;;;;5020280;28;20016;-58
2022/09/20 05:43:51;;;;;;;;;;;7.70;99.90;;;;;;5013575;28;19932;-59
2022/09/20 05:46:35;;;;;;;;;;;7.70;99.90;;;;;;5023815;28;20398;-58
2022/09/20 05:49:03;;;;;;;;;;;7.90;99.90;;;;;;5016663;28;19928;-56
2022/09/20 05:51:34;;;;;;;;;;;8.00;99.90;;;;;;5017549;28;19936;-56
2022/09/20 05:54:06;;;;;;;;;;;8.30;99.90;;;;;;5024585;28;19933;-57
2022/09/20 05:56:35;;;;;;;;;;;8.80;99.90;;;;;;5016334;28;19922;-57
2022/09/20 05:59:08;;;;;;;;;;;8.40;99.90;;;;;;5013142;28;19921;-57
2022/09/20 06:01:52;;;;;;;;;;;8.50;99.90;;;;;;5014113;28;20351;-56
2022/09/20 06:04:22;;;;;;;;;;;8.70;99.90;;;;;;5020250;28;20013;-57
2022/09/20 06:06:49;;;;;;;;;;;8.90;99.90;;;;;;5014683;28;19945;-57
2022/09/20 06:09:24;;;;;;;;;;;9.10;99.90;;;;;;5015496;28;20429;-56
2022/09/20 06:12:01;;;;;;;;;;;9.30;99.90;;;;;;5015932;28;20007;-56
2022/09/20 06:14:29;;;;;;;;;;;9.50;99.90;;;;;;5012238;28;20345;-57
2022/09/20 06:17:14;;;;;;;;;;;9.70;99.90;;;;;;5021814;28;19951;-57
2022/09/20 06:19:48;;;;;;;;;;;9.80;99.90;;;;;;5013673;28;19927;-57
2022/09/20 06:22:17;;;;;;;;;;;9.90;99.90;;;;;;5015920;28;20002;-57
2022/09/20 06:24:48;;;;;;;;;;;9.90;99.90;;;;;;5022703;28;19921;-58
2022/09/20 06:27:18;;;;;;;;;;;9.90;99.90;;;;;;5028567;28;19941;-57
2022/09/20 06:29:48;;;;;;;;;;;9.80;99.90;;;;;;5029949;28;20300;-57
2022/09/20 06:32:16;;;;;;;;;;;10.00;99.90;;;;;;5020162;28;19928;-57
2022/09/20 06:34:42;;;;;;;;;;;10.10;99.90;;;;;;5054754;28;19928;-57
2022/09/20 06:43:18;;;;;;;;;;;10.50;99.90;;;;;;5061153;28;20297;-57
2022/09/20 06:45:44;;;;;;;;;;;10.70;99.90;;;;;;5063463;28;20320;-58
2022/09/20 06:48:12;;;;;;;;;;;10.80;99.90;;;;;;5063168;28;19921;-57
2022/09/20 06:50:38;;;;;;;;;;;11.00;99.90;;;;;;5026749;28;19924;-58
2022/09/20 06:53:04;;;;;;;;;;;11.20;99.90;;;;;;5062451;28;20007;-57
2022/09/20 06:55:35;;;;;;;;;;;11.30;99.90;;;;;;5044751;28;19983;-57
2022/09/20 06:58:01;;;;;;;;;;;11.50;99.90;;;;;;5061077;28;20007;-58
2022/09/20 07:00:27;;;;;;;;;;;11.60;99.90;;;;;;5058720;28;20007;-57
2022/09/20 07:02:52;;;;;;;;;;;11.60;99.90;;;;;;5061006;28;19950;-58
2022/09/20 07:05:21;;;;;;;;;;;11.60;99.90;;;;;;5042674;28;19935;-58
2022/09/20 07:07:47;;;;;;;;;;;11.70;99.90;;;;;;5061903;28;19924;-59
2022/09/20 07:10:14;;;;;;;;;;;11.60;99.90;;;;;;5068020;28;19930;-58
2022/09/20 07:12:40;;;;;;;;;;;11.50;99.90;;;;;;5066916;28;19943;-58
2022/09/20 07:15:06;;;;;;;;;;;11.60;99.90;;;;;;5068128;28;19948;-58
2022/09/20 07:17:32;;;;;;;;;;;11.60;99.90;;;;;;5057699;28;19942;-58
2022/09/20 07:19:58;;;;;;;;;;;11.50;99.90;;;;;;5049796;28;20013;-58
2022/09/20 07:22:24;;;;;;;;;;;11.60;99.90;;;;;;5066271;28;19924;-57
2022/09/20 07:24:50;;;;;;;;;;;11.60;99.90;;;;;;5048864;28;19924;-57
2022/09/20 07:27:15;;;;;;;;;;;11.60;99.90;;;;;;5051371;28;19963;-57
2022/09/20 07:29:41;;;;;;;;;;;11.70;99.90;;;;;;5067827;28;19920;-57
2022/09/20 07:32:07;;;;;;;;;;;11.70;99.90;;;;;;5071005;28;19925;-57
2022/09/20 07:34:32;;;;;;;;;;;11.60;99.90;;;;;;5070796;28;20035;-58
2022/09/20 07:36:58;;;;;;;;;;;11.80;99.90;;;;;;5075087;28;20031;-57
2022/09/20 07:39:24;;;;;;;;;;;11.90;99.90;;;;;;5070069;28;19924;-57
2022/09/20 07:41:50;;;;;;;;;;;12.00;99.90;;;;;;5053356;28;19963;-58
2022/09/20 07:44:26;;;;;;;;;;;12.20;99.90;;;;;;5069058;28;20015;-59
2022/09/20 07:46:59;;;;;;;;;;;12.30;99.90;;;;;;5051827;28;19931;-58
2022/09/20 07:49:25;;;;;;;;;;;12.30;99.90;;;;;;5068855;28;19932;-57
2022/09/20 07:51:52;;;;;;;;;;;12.40;99.90;;;;;;5051999;28;19924;-58
2022/09/20 07:54:17;;;;;;;;;;;14.30;99.90;;;;;;5070751;28;19924;-59
2022/09/20 07:56:43;;;;;;;;;;;12.80;99.90;;;;;;5070239;28;19920;-59
2022/09/20 07:59:09;;;;;;;;;;;13.30;99.90;;;;;;5070071;28;19931;-58
2022/09/20 08:01:35;;;;;;;;;;;13.60;99.90;;;;;;5061961;28;19928;-57
2022/09/20 08:04:02;;;;;;;;;;;14.00;99.90;;;;;;5070287;28;19964;-58
2022/09/20 08:06:28;;;;;;;;;;;14.20;99.90;;;;;;5070811;28;19929;-58
2022/09/20 08:08:54;;;;;;;;;;;14.30;99.90;;;;;;5069322;28;19924;-58
2022/09/20 08:11:24;;;;;;;;;;;14.70;99.90;;;;;;5069030;28;19924;-58
2022/09/20 08:13:50;;;;;;;;;;;14.80;99.90;;;;;;5051287;28;19970;-58
2022/09/20 08:16:16;;;;;;;;;;;15.20;99.90;;;;;;5065811;28;19925;-58
2022/09/20 08:18:45;;;;;;;;;;;15.30;99.90;;;;;;5064599;28;19931;-57
2022/09/20 08:21:11;;;;;;;;;;;15.60;99.90;;;;;;5070715;28;19924;-57
2022/09/20 08:23:37;;;;;;;;;;;15.30;99.90;;;;;;5051377;28;20042;-57
2022/09/20 08:26:04;;;;;;;;;;;15.50;99.90;;;;;;5069960;28;20401;-57
2022/09/20 08:28:30;;;;;;;;;;;15.80;99.90;;;;;;5067582;28;20394;-57
2022/09/20 08:31:00;;;;;;;;;;;15.80;99.90;;;;;;5069332;28;20421;-57
2022/09/20 08:33:26;;;;;;;;;;;15.50;99.90;;;;;;5069630;28;19928;-57
2022/09/20 08:35:51;;;;;;;;;;;16.30;99.90;;;;;;5069152;28;20370;-57
2022/09/20 08:38:18;;;;;;;;;;;16.90;99.90;;;;;;5059374;28;19986;-57
2022/09/20 08:40:43;;;;;;;;;;;16.80;99.90;;;;;;5050911;28;19924;-57
2022/09/20 08:43:10;;;;;;;;;;;17.20;99.90;;;;;;5068201;28;19932;-59
2022/09/20 08:45:37;;;;;;;;;;;17.30;99.90;;;;;;5069184;28;19924;-62
2022/09/20 08:48:06;;;;;;;;;;;17.50;99.90;;;;;;5069157;28;19924;-63
2022/09/20 08:50:33;;;;;;;;;;;17.30;99.90;;;;;;5065968;28;19998;-58
2022/09/20 08:53:03;;;;;;;;;;;17.40;99.90;;;;;;5064574;28;20007;-58
2022/09/20 08:55:34;;;;;;;;;;;17.60;99.90;;;;;;5050412;28;20285;-59
2022/09/20 08:58:01;;;;;;;;;;;17.20;99.90;;;;;;5068937;28;19931;-63
2022/09/20 09:00:31;;;;;;;;;;;17.00;99.90;;;;;;5067607;28;19977;-58
2022/09/20 09:02:59;;;;;;;;;;;17.80;99.90;;;;;;5068086;28;19975;-57
2022/09/20 09:05:27;;;;;;;;;;;18.10;99.90;;;;;;5068960;28;19924;-58
2022/09/20 09:07:52;;;;;;;;;;;18.30;99.90;;;;;;5069398;28;20692;-58
2022/09/20 09:10:18;;;;;;;;;;;18.70;99.90;;;;;;5069407;28;19928;-58
2022/09/20 09:12:45;;;;;;;;;;;18.20;99.90;;;;;;5068500;28;19965;-58
2022/09/20 09:15:21;;;;;;;;;;;17.00;99.90;;;;;;5069193;28;19920;-58
2022/09/20 09:17:47;;;;;;;;;;;16.20;99.90;;;;;;5064738;28;20370;-58
2022/09/20 09:20:12;;;;;;;;;;;16.00;99.90;;;;;;5068135;28;19927;-58
2022/09/20 09:22:40;;;;;;;;;;;15.70;99.90;;;;;;5060340;28;20563;-58
2022/09/20 09:25:07;;;;;;;;;;;15.80;99.90;;;;;;5064958;28;19933;-58
2022/09/20 09:27:34;;;;;;;;;;;16.00;99.90;;;;;;5067956;28;19931;-58
2022/09/20 09:29:59;;;;;;;;;;;16.30;99.90;;;;;;5068010;28;19931;-58
2022/09/20 09:32:29;;;;;;;;;;;16.30;99.90;;;;;;5066242;28;19924;-58
2022/09/20 09:34:56;;;;;;;;;;;17.10;99.90;;;;;;5066421;28;19931;-58
2022/09/20 09:37:23;;;;;;;;;;;17.40;99.90;;;;;;5057986;28;19928;-58
2022/09/20 09:40:03;;;;;;;;;;;17.00;99.90;;;;;;5058654;28;19963;-58
2022/09/20 09:42:30;;;;;;;;;;;17.00;99.90;;;;;;5067333;28;19924;-58
2022/09/20 09:45:09;;;;;;;;;;;16.60;99.90;;;;;;5050530;28;19936;-58
2022/09/20 09:47:35;;;;;;;;;;;16.80;99.90;;;;;;5067383;28;20401;-58
2022/09/20 09:50:01;;;;;;;;;;;16.60;99.90;;;;;;5066269;28;19924;-58
2022/09/20 09:52:32;;;;;;;;;;;16.40;99.90;;;;;;5048857;28;19931;-58
2022/09/20 09:54:58;;;;;;;;;;;16.80;99.90;;;;;;5068793;28;19982;-58
2022/09/20 09:57:24;;;;;;;;;;;16.70;99.90;;;;;;5068304;28;20015;-58
2022/09/20 10:00:10;;;;;;;;;;;17.10;99.90;;;;;;5069091;28;20018;-58
2022/09/20 10:02:42;;;;;;;;;;;16.90;99.90;;;;;;5066972;28;19925;-58
2022/09/20 10:05:21;;;;;;;;;;;16.40;99.90;;;;;;5067727;28;19924;-58
2022/09/20 10:08:05;;;;;;;;;;;16.90;99.90;;;;;;5067632;28;19924;-57
2022/09/20 10:10:50;;;;;;;;;;;16.90;99.90;;;;;;5065269;28;19924;-58
2022/09/20 10:13:32;;;;;;;;;;;17.00;99.90;;;;;;5065849;28;19946;-58
2022/09/20 10:16:07;;;;;;;;;;;17.10;99.90;;;;;;5067650;28;20062;-58
2022/09/20 10:18:47;;;;;;;;;;;16.90;99.90;;;;;;5035887;28;19924;-58
2022/09/20 10:21:16;;;;;;;;;;;17.10;99.90;;;;;;5047559;28;19973;-58
2022/09/20 10:23:41;;;;;;;;;;;17.40;99.90;;;;;;5053201;28;19928;-58
2022/09/20 10:26:25;;;;;;;;;;;17.30;99.90;;;;;;5068192;28;19924;-59
2022/09/20 10:29:07;;;;;;;;;;;17.70;99.90;;;;;;5068256;28;19924;-58
2022/09/20 10:31:39;;;;;;;;;;;17.30;99.90;;;;;;5048266;28;19931;-58
2022/09/20 10:34:40;;;;;;;;;;;17.70;99.90;;;;;;5068358;28;19924;-58
2022/09/20 10:37:20;;;;;;;;;;;18.40;99.90;;;;;;4948051;28;20605;-58
2022/09/20 10:39:52;;;;;;;;;;;18.30;99.90;;;;;;5041949;28;19931;-58
2022/09/20 10:45:22;;;;;;;;;;;18.50;99.90;;;;;;5067930;28;19924;-58
2022/09/20 10:47:55;;;;;;;;;;;18.60;99.90;;;;;;5066946;28;19971;-58
2022/09/20 10:50:27;;;;;;;;;;;17.80;99.90;;;;;;5067741;28;19924;-58
2022/09/20 10:52:53;;;;;;;;;;;18.20;99.90;;;;;;5068234;28;19924;-58
2022/09/20 10:55:25;;;;;;;;;;;18.60;99.90;;;;;;5066988;28;19928;-58
2022/09/20 10:58:12;;;;;;;;;;;19.10;99.90;;;;;;5049816;28;19977;-58
2022/09/20 11:00:53;;;;;;;;;;;18.50;99.90;;;;;;5047944;28;19955;-58
2022/09/20 11:03:25;;;;;;;;;;;18.40;99.90;;;;;;5071870;28;19935;-58
2022/09/20 11:06:09;;;;;;;;;;;18.50;99.90;;;;;;5072100;28;20382;-58
2022/09/20 11:08:37;;;;;;;;;;;18.70;99.90;;;;;;5071462;28;19966;-58
2022/09/20 11:11:12;;;;;;;;;;;18.40;99.90;;;;;;5070513;28;19924;-58
2022/09/20 11:13:57;;;;;;;;;;;18.70;99.90;;;;;;5071270;28;20439;-57
2022/09/20 11:16:35;;;;;;;;;;;18.80;99.90;;;;;;5071393;28;19924;-58
2022/09/20 11:19:14;;;;;;;;;;;18.30;99.90;;;;;;5053446;28;20393;-58
2022/09/20 11:21:45;;;;;;;;;;;18.60;99.90;;;;;;5056771;28;19935;-58
2022/09/20 11:24:29;;;;;;;;;;;18.10;99.90;;;;;;5071150;28;19985;-59
2022/09/20 11:27:13;;;;;;;;;;;18.40;99.90;;;;;;5071741;28;20015;-58
2022/09/20 11:30:01;;;;;;;;;;;17.90;99.90;;;;;;5054184;28;19928;-58
2022/09/20 11:32:33;;;;;;;;;;;18.40;99.90;;;;;;5047029;28;19924;-57
2022/09/20 11:35:02;;;;;;;;;;;18.40;99.90;;;;;;5071274;28;20500;-58
2022/09/20 11:37:36;;;;;;;;;;;18.10;99.90;;;;;;5071930;28;19932;-58
2022/09/20 11:40:25;;;;;;;;;;;18.10;99.90;;;;;;5071950;28;20019;-58
2022/09/20 11:42:51;;;;;;;;;;;18.20;99.90;;;;;;5058158;28;19924;-58
2022/09/20 11:45:18;;;;;;;;;;;17.90;99.90;;;;;;5071617;28;19925;-58
2022/09/20 11:47:47;;;;;;;;;;;17.90;99.90;;;;;;5072214;28;19925;-58
2022/09/20 11:50:18;;;;;;;;;;;18.60;99.90;;;;;;5071875;28;20271;-58
2022/09/20 11:53:02;;;;;;;;;;;18.10;99.90;;;;;;5072044;28;19958;-59
2022/09/20 11:55:28;;;;;;;;;;;18.20;99.90;;;;;;5071848;28;19993;-58
2022/09/20 11:58:00;;;;;;;;;;;18.30;99.90;;;;;;5053923;28;19972;-58
2022/09/20 12:00:32;;;;;;;;;;;18.40;99.30;;;;;;5063799;28;19931;-58
2022/09/20 12:02:58;;;;;;;;;;;19.40;99.40;;;;;;5066913;28;19928;-58
2022/09/20 12:05:32;;;;;;;;;;;19.40;99.90;;;;;;5070664;28;19924;-58
2022/09/20 12:07:59;;;;;;;;;;;18.00;99.90;;;;;;5069093;28;19924;-60
2022/09/20 12:10:31;;;;;;;;;;;17.90;99.90;;;;;;5059194;28;19928;-60
2022/09/20 12:13:01;;;;;;;;;;;17.70;99.90;;;;;;5070357;28;19994;-58
2022/09/20 12:15:35;;;;;;;;;;;18.10;99.90;;;;;;5070678;28;19924;-58
2022/09/20 12:18:07;;;;;;;;;;;18.00;99.90;;;;;;5064136;28;20545;-58
2022/09/20 12:20:38;;;;;;;;;;;17.50;99.90;;;;;;5069915;28;20445;-59
2022/09/20 12:23:22;;;;;;;;;;;17.50;99.90;;;;;;5070403;28;19924;-59
2022/09/20 12:26:00;;;;;;;;;;;17.80;99.90;;;;;;5055898;28;19924;-60
2022/09/20 12:28:33;;;;;;;;;;;17.30;99.90;;;;;;5068674;28;20487;-58
2022/09/20 12:31:17;;;;;;;;;;;17.00;99.90;;;;;;5069093;28;19924;-58
2022/09/20 12:33:58;;;;;;;;;;;16.90;99.90;;;;;;5054654;28;20346;-61
2022/09/20 12:36:24;;;;;;;;;;;16.90;99.90;;;;;;5069792;28;19968;-58
2022/09/20 12:38:55;;;;;;;;;;;16.90;99.90;;;;;;5063410;28;19928;-58
2022/09/20 12:41:21;;;;;;;;;;;17.00;99.90;;;;;;5059242;28;19931;-58
2022/09/20 12:43:58;;;;;;;;;;;16.70;99.90;;;;;;5069647;28;20009;-58
2022/09/20 12:46:39;;;;;;;;;;;17.20;99.90;;;;;;5067290;28;19925;-57
2022/09/20 12:55:05;;;;;;;;;;;17.30;99.90;;;;;;5068605;28;19924;-58
2022/09/20 12:57:31;;;;;;;;;;;20.00;99.90;;;;;;5069280;28;19930;-58
2022/09/20 12:59:58;;;;;;;;;;;20.50;99.00;;;;;;5069100;28;19977;-58
2022/09/20 13:02:55;;;;;;;;;;;21.00;97.10;;;;;;5066558;28;20030;-58
2022/09/20 13:05:31;;;;;;;;;;;20.80;97.20;;;;;;5066178;28;19925;-58
2022/09/20 13:08:01;;;;;;;;;;;19.70;97.60;;;;;;5049871;28;19924;-58
2022/09/20 13:10:29;;;;;;;;;;;18.90;99.90;;;;;;5067528;28;20362;-63
2022/09/20 13:12:58;;;;;;;;;;;19.40;99.20;;;;;;5069578;28;19924;-58
2022/09/20 13:15:23;;;;;;;;;;;18.90;99.90;;;;;;5069025;28;19924;-57
2022/09/20 13:17:51;;;;;;;;;;;18.70;99.90;;;;;;5058154;28;19997;-57
2022/09/20 13:20:19;;;;;;;;;;;18.30;99.90;;;;;;5068060;28;19924;-57
2022/09/20 13:22:46;;;;;;;;;;;18.40;99.90;;;;;;5061627;28;19920;-58
2022/09/20 13:25:13;;;;;;;;;;;18.60;99.90;;;;;;5060316;28;19924;-58
2022/09/20 13:27:45;;;;;;;;;;;18.60;99.90;;;;;;5051683;28;19924;-57
2022/09/20 13:30:22;;;;;;;;;;;19.20;99.90;;;;;;5066430;28;19998;-58
2022/09/20 13:32:48;;;;;;;;;;;18.40;99.90;;;;;;5049200;28;19924;-57
2022/09/20 13:35:15;;;;;;;;;;;17.70;99.90;;;;;;5042854;28;20290;-58
2022/09/20 13:38:01;;;;;;;;;;;17.40;99.90;;;;;;5067771;28;20007;-58
2022/09/20 13:40:32;;;;;;;;;;;17.20;99.90;;;;;;5063773;28;19924;-58
2022/09/20 13:42:59;;;;;;;;;;;17.50;99.90;;;;;;5069446;28;19924;-58
2022/09/20 13:45:25;;;;;;;;;;;17.00;99.90;;;;;;5040676;28;19925;-58
2022/09/20 13:47:51;;;;;;;;;;;17.30;99.90;;;;;;5047181;28;19924;-58
2022/09/20 13:50:17;;;;;;;;;;;17.10;99.90;;;;;;5060662;28;20035;-59
2022/09/20 13:52:47;;;;;;;;;;;17.20;99.90;;;;;;5061485;28;20012;-58
2022/09/20 13:55:25;;;;;;;;;;;17.30;99.90;;;;;;5068600;28;19924;-58
2022/09/20 13:57:52;;;;;;;;;;;18.20;99.90;;;;;;5068230;28;19920;-58
2022/09/20 14:00:17;;;;;;;;;;;19.10;99.90;;;;;;5068563;28;19920;-58
2022/09/20 14:02:44;;;;;;;;;;;17.70;99.90;;;;;;5060344;28;19925;-58
2022/09/20 14:05:18;;;;;;;;;;;17.50;99.90;;;;;;5063885;28;19931;-58
2022/09/20 14:07:45;;;;;;;;;;;17.10;99.90;;;;;;5042812;28;19931;-58
2022/09/20 14:10:29;;;;;;;;;;;17.20;99.90;;;;;;5067522;28;19924;-58
2022/09/20 14:12:56;;;;;;;;;;;18.00;99.90;;;;;;5052492;28;19925;-58
2022/09/20 14:15:22;;;;;;;;;;;17.70;99.90;;;;;;5066434;28;19924;-58
2022/09/20 14:17:47;;;;;;;;;;;18.50;99.90;;;;;;5057600;28;20439;-59
2022/09/20 14:20:14;;;;;;;;;;;19.00;99.90;;;;;;5068617;28;20032;-58
2022/09/20 14:22:39;;;;;;;;;;;19.20;99.90;;;;;;5067387;28;19928;-60
2022/09/20 14:25:11;;;;;;;;;;;18.50;99.50;;;;;;5068149;28;19931;-65
2022/09/20 14:27:37;;;;;;;;;;;19.30;99.70;;;;;;5053219;28;19925;-58
2022/09/20 14:30:03;;;;;;;;;;;19.60;99.30;;;;;;5068974;28;19924;-58
2022/09/20 14:32:35;;;;;;;;;;;19.00;99.10;;;;;;5066573;28;20021;-63
2022/09/20 14:35:06;;;;;;;;;;;19.00;99.00;;;;;;5066054;28;20404;-59
2022/09/20 14:37:41;;;;;;;;;;;18.40;99.00;;;;;;5049843;28;19947;-62
2022/09/20 14:40:39;;;;;;;;;;;17.60;99.90;;;;;;5060818;28;19925;-58
2022/09/20 14:43:08;;;;;;;;;;;17.20;99.90;;;;;;5025688;28;20321;-58
2022/09/20 14:45:35;;;;;;;;;;;17.20;99.90;;;;;;5060274;28;20325;-57
2022/09/20 14:48:05;;;;;;;;;;;17.10;99.90;;;;;;5061527;28;19924;-61
2022/09/20 14:50:32;;;;;;;;;;;16.90;99.90;;;;;;5065373;28;20321;-59
2022/09/20 14:52:59;;;;;;;;;;;16.90;99.90;;;;;;5068081;28;20739;-59
2022/09/20 14:55:27;;;;;;;;;;;17.00;99.90;;;;;;5068742;28;19970;-60
2022/09/20 14:57:57;;;;;;;;;;;16.80;99.90;;;;;;5067300;28;19997;-60
2022/09/20 15:00:22;;;;;;;;;;;16.40;99.90;;;;;;5068330;28;19977;-58
2022/09/20 15:02:48;;;;;;;;;;;16.40;99.90;;;;;;5062671;28;19928;-59
2022/09/20 15:05:32;;;;;;;;;;;16.60;99.90;;;;;;5064253;28;19928;-61
2022/09/20 15:07:58;;;;;;;;;;;16.50;99.90;;;;;;5064710;28;19924;-58
2022/09/20 15:10:24;;;;;;;;;;;16.40;99.90;;;;;;5063302;28;19977;-58
2022/09/20 15:12:49;;;;;;;;;;;16.20;99.90;;;;;;5063800;28;19995;-58